createdAt,value
2018-09-21T00:00:02.856Z,4.50
2018-09-21T00:01:02.719Z,4.90
2018-09-21T00:02:02.461Z,5.70
2018-09-21T00:03:02.437Z,5.50
2018-09-21T00:04:02.530Z,6.60
2018-09-21T00:05:02.414Z,5.00
2018-09-21T00:06:02.528Z,5.50
2018-09-21T00:07:02.515Z,4.90
2018-09-21T00:08:02.487Z,8.10
2018-09-21T00:09:02.374Z,5.50
2018-09-21T00:10:02.358Z,5.80
2018-09-21T00:11:02.365Z,4.40
2018-09-21T00:12:02.368Z,4.90
2018-09-21T00:13:02.436Z,4.70
2018-09-21T00:14:02.317Z,4.50
2018-09-21T00:15:02.422Z,6.40
2018-09-21T00:16:02.298Z,3.60
2018-09-21T00:17:02.310Z,5.90
2018-09-21T00:18:02.293Z,3.40
2018-09-21T00:19:02.280Z,4.10
2018-09-21T00:20:02.379Z,5.80
2018-09-21T00:21:02.242Z,3.80
2018-09-21T00:22:02.232Z,4.30
2018-09-21T00:23:02.345Z,4.90
2018-09-21T00:24:02.480Z,5.50
2018-09-21T00:25:02.204Z,5.30
2018-09-21T00:26:02.191Z,5.30
2018-09-21T00:27:02.443Z,6.00
2018-09-21T00:28:02.170Z,4.40
2018-09-21T00:29:02.211Z,4.50
2018-09-21T00:30:02.273Z,6.50
2018-09-21T00:31:02.527Z,5.40
2018-09-21T00:32:02.252Z,6.10
2018-09-21T00:33:02.130Z,5.80
2018-09-21T00:34:02.239Z,5.50
2018-09-21T00:35:02.201Z,5.20
2018-09-21T00:36:02.086Z,5.00
2018-09-21T00:37:02.350Z,5.90
2018-09-21T00:38:02.099Z,5.40
2018-09-21T00:39:02.058Z,5.60
2018-09-21T00:40:02.044Z,5.00
2018-09-21T00:41:02.158Z,5.50
2018-09-21T00:42:02.023Z,4.90
2018-09-21T00:43:02.027Z,4.30
2018-09-21T00:44:02.008Z,6.30
2018-09-21T00:45:01.995Z,4.50
2018-09-21T00:46:01.977Z,4.50
2018-09-21T00:47:01.970Z,4.30
2018-09-21T00:48:01.984Z,4.20
2018-09-21T00:49:01.997Z,3.90
2018-09-21T00:50:01.939Z,4.00
2018-09-21T00:51:01.933Z,5.30
2018-09-21T00:52:01.925Z,6.10
2018-09-21T00:53:02.179Z,5.50
2018-09-21T00:54:01.900Z,5.20
2018-09-21T00:55:01.889Z,5.50
2018-09-21T00:56:02.530Z,6.00
2018-09-21T00:57:01.863Z,5.10
2018-09-21T00:58:01.908Z,4.90
2018-09-21T00:59:01.848Z,5.50
2018-09-21T01:00:01.832Z,5.40
2018-09-21T01:01:01.818Z,4.80
2018-09-21T01:02:01.811Z,4.60
2018-09-21T01:03:01.933Z,6.70
2018-09-21T01:04:01.919Z,5.20
2018-09-21T01:05:02.043Z,6.40
2018-09-21T01:06:02.039Z,5.70
2018-09-21T01:07:01.860Z,6.30
2018-09-21T01:08:01.764Z,6.40
2018-09-21T01:09:01.739Z,3.80
2018-09-21T01:10:01.739Z,6.40
2018-09-21T01:11:01.849Z,6.30
2018-09-21T01:12:01.960Z,4.40
2018-09-21T01:13:01.820Z,5.10
2018-09-21T01:14:01.806Z,4.50
2018-09-21T01:15:01.810Z,5.10
2018-09-21T01:16:01.678Z,5.00
2018-09-21T01:17:01.656Z,6.00
2018-09-21T01:18:01.652Z,6.10
2018-09-21T01:19:01.749Z,5.30
2018-09-21T01:20:01.671Z,5.20
2018-09-21T01:21:01.610Z,6.00
2018-09-21T01:22:01.704Z,5.20
2018-09-21T01:23:01.602Z,5.90
2018-09-21T01:24:01.697Z,5.30
2018-09-21T01:25:01.567Z,5.60
2018-09-21T01:26:01.563Z,6.70
2018-09-21T01:27:01.813Z,5.30
2018-09-21T01:28:01.548Z,5.10
2018-09-21T01:29:01.526Z,3.90
2018-09-21T01:30:01.638Z,6.30
2018-09-21T01:31:01.507Z,4.50
2018-09-21T01:32:01.594Z,5.70
2018-09-21T01:33:01.613Z,5.20
2018-09-21T01:34:01.865Z,5.40
2018-09-21T01:35:01.463Z,6.40
2018-09-21T01:36:01.559Z,7.20
2018-09-21T01:37:01.437Z,4.20
2018-09-21T01:38:01.522Z,5.60
2018-09-21T01:39:01.421Z,6.30
2018-09-21T01:40:01.420Z,5.20
2018-09-21T01:41:01.408Z,4.60
2018-09-21T01:42:01.383Z,5.80
2018-09-21T01:43:01.391Z,4.20
2018-09-21T01:44:01.491Z,5.70
2018-09-21T01:45:03.038Z,4.40
2018-09-21T01:46:01.359Z,6.50
2018-09-21T01:47:01.668Z,5.20
2018-09-21T01:48:01.322Z,6.50
2018-09-21T01:49:01.347Z,5.90
2018-09-21T01:50:01.304Z,4.90
2018-09-21T01:51:01.288Z,6.50
2018-09-21T01:52:01.543Z,5.40
2018-09-21T01:53:01.283Z,7.30
2018-09-21T01:54:01.275Z,6.30
2018-09-21T01:55:01.255Z,6.50
2018-09-21T01:56:01.345Z,7.10
2018-09-21T01:57:01.231Z,5.50
2018-09-21T01:58:01.228Z,5.20
2018-09-21T01:59:01.505Z,4.90
2018-09-21T02:00:01.199Z,6.60
2018-09-21T02:01:01.572Z,6.80
2018-09-21T02:02:01.176Z,4.30
2018-09-21T02:03:01.497Z,5.20
2018-09-21T02:04:01.180Z,4.60
2018-09-21T02:05:01.150Z,6.20
2018-09-21T02:06:01.131Z,6.40
2018-09-21T02:07:01.264Z,6.00
2018-09-21T02:08:01.223Z,4.60
2018-09-21T02:09:01.118Z,5.80
2018-09-21T02:10:01.091Z,6.30
2018-09-21T02:11:01.083Z,5.30
2018-09-21T02:12:01.331Z,4.90
2018-09-21T02:13:01.179Z,6.60
2018-09-21T02:14:01.062Z,6.20
2018-09-21T02:15:01.411Z,6.70
2018-09-21T02:16:01.025Z,3.90
2018-09-21T02:17:01.124Z,7.00
2018-09-21T02:18:01.136Z,5.70
2018-09-21T02:19:01.011Z,5.70
2018-09-21T02:20:00.990Z,6.50
2018-09-21T02:21:00.977Z,5.00
2018-09-21T02:22:01.066Z,4.90
2018-09-21T02:23:01.327Z,5.00
2018-09-21T02:24:01.221Z,6.10
2018-09-21T02:25:01.216Z,7.60
2018-09-21T02:26:00.922Z,7.20
2018-09-21T02:27:01.299Z,5.00
2018-09-21T02:28:00.900Z,5.00
2018-09-21T02:29:01.015Z,6.20
2018-09-21T02:30:00.984Z,5.70
2018-09-21T02:31:01.318Z,5.40
2018-09-21T02:32:01.122Z,5.30
2018-09-21T02:33:00.850Z,6.20
2018-09-21T02:34:00.856Z,5.10
2018-09-21T02:35:00.941Z,5.90
2018-09-21T02:36:00.820Z,5.80
2018-09-21T02:37:00.805Z,4.80
2018-09-21T02:38:00.795Z,5.60
2018-09-21T02:39:00.805Z,6.30
2018-09-21T02:40:00.782Z,4.50
2018-09-21T02:41:00.762Z,6.20
2018-09-21T02:42:00.754Z,6.40
2018-09-21T02:43:00.739Z,4.90
2018-09-21T02:44:00.758Z,5.30
2018-09-21T02:45:00.734Z,6.00
2018-09-21T02:46:00.709Z,4.90
2018-09-21T02:47:00.700Z,5.90
2018-09-21T02:48:00.761Z,4.70
2018-09-21T02:49:00.708Z,6.30
2018-09-21T02:50:00.673Z,7.40
2018-09-21T02:51:00.655Z,5.80
2018-09-21T02:52:00.642Z,5.80
2018-09-21T02:53:00.633Z,5.70
2018-09-21T02:54:00.899Z,4.90
2018-09-21T02:55:00.624Z,5.30
2018-09-21T02:56:00.602Z,5.70
2018-09-21T02:57:00.606Z,5.20
2018-09-21T02:58:00.687Z,6.00
2018-09-21T02:59:00.587Z,5.50
2018-09-21T03:00:01.084Z,6.20
2018-09-21T03:01:01.814Z,6.80
2018-09-21T03:02:00.554Z,5.60
2018-09-21T03:03:00.529Z,5.90
2018-09-21T03:04:00.533Z,5.00
2018-09-21T03:05:00.510Z,6.40
2018-09-21T03:06:00.505Z,5.60
2018-09-21T03:07:00.489Z,4.40
2018-09-21T03:08:00.597Z,6.10
2018-09-21T03:09:00.479Z,5.30
2018-09-21T03:10:00.456Z,9.40
2018-09-21T03:11:00.446Z,6.00
2018-09-21T03:12:00.513Z,6.60
2018-09-21T03:13:00.464Z,6.30
2018-09-21T03:14:00.440Z,5.50
2018-09-21T03:15:01.059Z,4.80
2018-09-21T03:16:00.510Z,6.70
2018-09-21T03:17:00.380Z,5.10
2018-09-21T03:18:00.370Z,6.20
2018-09-21T03:19:00.875Z,5.90
2018-09-21T03:20:00.454Z,4.70
2018-09-21T03:21:00.602Z,6.00
2018-09-21T03:22:00.328Z,4.60
2018-09-21T03:23:00.317Z,6.10
2018-09-21T03:24:00.594Z,5.70
2018-09-21T03:25:00.313Z,5.40
2018-09-21T03:26:00.289Z,6.40
2018-09-21T03:27:00.340Z,5.00
2018-09-21T03:28:00.288Z,6.10
2018-09-21T03:29:00.269Z,5.80
2018-09-21T03:30:00.353Z,6.20
2018-09-21T03:31:00.263Z,6.30
2018-09-21T03:32:00.540Z,5.20
2018-09-21T03:33:00.211Z,5.10
2018-09-21T03:34:00.217Z,5.20
2018-09-21T03:35:00.199Z,6.70
2018-09-21T03:36:00.185Z,5.30
2018-09-21T03:37:00.307Z,7.20
2018-09-21T03:38:00.159Z,4.40
2018-09-21T03:39:00.167Z,5.80
2018-09-21T03:40:00.262Z,5.60
2018-09-21T03:41:00.128Z,4.60
2018-09-21T03:42:00.182Z,6.50
2018-09-21T03:43:00.174Z,5.70
2018-09-21T03:44:00.107Z,6.00
2018-09-21T03:45:00.347Z,7.50
2018-09-21T03:46:00.189Z,5.90
2018-09-21T03:47:00.062Z,5.70
2018-09-21T03:48:00.315Z,6.50
2018-09-21T03:49:00.048Z,5.80
2018-09-21T03:50:00.049Z,5.50
2018-09-21T03:51:00.032Z,6.20
2018-09-21T03:52:00.010Z,5.90
2018-09-21T03:53:00.000Z,5.30
2018-09-21T03:53:59.990Z,6.30
2018-09-21T03:54:59.995Z,6.70
2018-09-21T03:55:59.989Z,5.20
2018-09-21T03:56:59.953Z,6.80
2018-09-21T03:57:59.945Z,6.50
2018-09-21T03:58:59.934Z,5.80
2018-09-21T03:59:59.944Z,5.10
2018-09-21T04:01:00.354Z,5.80
2018-09-21T04:01:59.903Z,4.90
2018-09-21T04:02:59.908Z,5.70
2018-09-21T04:03:59.886Z,5.20
2018-09-21T04:04:58.872Z,4.80
2018-09-21T04:06:00.051Z,4.40
2018-09-21T04:06:59.961Z,6.20
2018-09-21T04:07:59.940Z,6.80
2018-09-21T04:08:59.843Z,4.80
2018-09-21T04:09:59.818Z,5.50
2018-09-21T04:10:59.822Z,5.90
2018-09-21T04:12:00.072Z,6.70
2018-09-21T04:12:59.783Z,5.60
2018-09-21T04:14:00.168Z,6.00
2018-09-21T04:14:59.768Z,4.90
2018-09-21T04:15:59.818Z,8.80
2018-09-21T04:16:59.743Z,5.90
2018-09-21T04:17:59.875Z,8.10
2018-09-21T04:18:59.728Z,5.50
2018-09-21T04:19:59.971Z,5.00
2018-09-21T04:20:59.728Z,5.10
2018-09-21T04:21:59.693Z,6.20
2018-09-21T04:22:59.758Z,5.90
2018-09-21T04:23:59.677Z,6.20
2018-09-21T04:24:59.656Z,5.90
2018-09-21T04:25:59.688Z,5.70
2018-09-21T04:26:59.754Z,7.00
2018-09-21T04:27:59.625Z,5.40
2018-09-21T04:28:59.618Z,5.50
2018-09-21T04:29:59.609Z,6.00
2018-09-21T04:30:59.608Z,5.10
2018-09-21T04:31:59.591Z,6.00
2018-09-21T04:32:59.598Z,5.90
2018-09-21T04:33:59.564Z,5.00
2018-09-21T04:34:59.612Z,5.60
2018-09-21T04:35:59.888Z,6.60
2018-09-21T04:36:59.631Z,6.10
2018-09-21T04:37:59.784Z,6.80
2018-09-21T04:38:58.513Z,6.10
2018-09-21T04:39:59.665Z,4.10
2018-09-21T04:40:59.515Z,4.60
2018-09-21T04:41:59.500Z,6.70
2018-09-21T04:42:59.468Z,5.50
2018-09-21T04:43:59.581Z,6.10
2018-09-21T04:44:59.458Z,7.40
2018-09-21T04:45:59.452Z,4.50
2018-09-21T04:46:59.427Z,5.60
2018-09-21T04:47:59.413Z,6.30
2018-09-21T04:48:59.403Z,5.60
2018-09-21T04:49:59.397Z,6.20
2018-09-21T04:50:59.655Z,5.00
2018-09-21T04:51:59.376Z,4.80
2018-09-21T04:52:59.369Z,6.00
2018-09-21T04:53:59.355Z,4.30
2018-09-21T04:54:59.582Z,6.10
2018-09-21T04:55:59.448Z,5.30
2018-09-21T04:56:59.319Z,6.80
2018-09-21T04:57:59.375Z,4.60
2018-09-21T04:58:59.324Z,6.30
2018-09-21T04:59:59.285Z,4.60
2018-09-21T05:00:59.293Z,5.00
2018-09-21T05:01:59.274Z,5.90
2018-09-21T05:02:59.256Z,6.20
2018-09-21T05:03:59.256Z,5.80
2018-09-21T05:04:59.232Z,5.00
2018-09-21T05:05:59.402Z,4.80
2018-09-21T05:07:00.266Z,6.00
2018-09-21T05:07:59.262Z,7.60
2018-09-21T05:08:59.253Z,5.40
2018-09-21T05:09:59.194Z,6.20
2018-09-21T05:10:59.293Z,6.90
2018-09-21T05:11:59.168Z,6.80
2018-09-21T05:12:59.203Z,4.80
2018-09-21T05:13:59.409Z,5.90
2018-09-21T05:14:59.146Z,7.20
2018-09-21T05:15:59.205Z,5.10
2018-09-21T05:16:59.229Z,5.10
2018-09-21T05:17:59.359Z,6.70
2018-09-21T05:18:59.084Z,6.40
2018-09-21T05:19:59.156Z,6.00
2018-09-21T05:20:59.328Z,5.00
2018-09-21T05:21:59.062Z,7.90
2018-09-21T05:22:59.305Z,5.60
2018-09-21T05:23:59.135Z,5.50
2018-09-21T05:24:59.145Z,5.40
2018-09-21T05:25:59.013Z,6.10
2018-09-21T05:26:59.104Z,5.80
2018-09-21T05:27:59.017Z,5.00
2018-09-21T05:28:59.261Z,7.30
2018-09-21T05:29:58.995Z,5.20
2018-09-21T05:30:58.960Z,6.10
2018-09-21T05:31:59.227Z,7.40
2018-09-21T05:32:58.947Z,7.20
2018-09-21T05:34:00.380Z,4.20
2018-09-21T05:34:59.000Z,7.80
2018-09-21T05:35:58.906Z,6.20
2018-09-21T05:36:59.567Z,6.30
2018-09-21T05:37:58.887Z,6.60
2018-09-21T05:38:59.021Z,5.60
2018-09-21T05:40:01.337Z,5.90
2018-09-21T05:40:58.853Z,6.00
2018-09-21T05:41:58.846Z,5.20
2018-09-21T05:42:58.854Z,8.00
2018-09-21T05:43:58.845Z,5.40
2018-09-21T05:44:58.931Z,7.00
2018-09-21T05:45:58.802Z,4.60
2018-09-21T05:46:58.804Z,5.10
2018-09-21T05:47:58.818Z,5.40
2018-09-21T05:48:58.771Z,6.30
2018-09-21T05:49:58.770Z,6.30
2018-09-21T05:50:58.769Z,5.50
2018-09-21T05:51:58.942Z,5.00
2018-09-21T05:52:59.119Z,5.60
2018-09-21T05:53:58.871Z,8.10
2018-09-21T05:54:58.973Z,5.10
2018-09-21T05:55:59.123Z,7.20
2018-09-21T05:56:58.982Z,5.30
2018-09-21T05:57:58.685Z,6.80
2018-09-21T05:58:58.777Z,5.70
2018-09-21T05:59:58.667Z,6.10
2018-09-21T06:00:58.706Z,7.80
2018-09-21T06:01:58.731Z,6.90
2018-09-21T06:02:58.765Z,5.70
2018-09-21T06:03:58.730Z,5.80
2018-09-21T06:04:58.866Z,6.70
2018-09-21T06:05:58.601Z,5.90
2018-09-21T06:06:58.575Z,7.80
2018-09-21T06:07:58.736Z,8.80
2018-09-21T06:08:58.563Z,6.00
2018-09-21T06:09:58.549Z,6.70
2018-09-21T06:10:58.551Z,5.80
2018-09-21T06:11:58.592Z,6.30
2018-09-21T06:12:58.541Z,6.80
2018-09-21T06:13:58.590Z,6.40
2018-09-21T06:14:58.507Z,6.70
2018-09-21T06:15:58.484Z,7.30
2018-09-21T06:16:59.028Z,5.40
2018-09-21T06:17:58.465Z,5.90
2018-09-21T06:18:58.459Z,6.40
2018-09-21T06:20:11.756Z,6.80
2018-09-21T06:20:58.440Z,5.60
2018-09-21T06:21:58.445Z,7.00
2018-09-21T06:22:58.431Z,9.80
2018-09-21T06:23:58.404Z,7.00
2018-09-21T06:24:58.653Z,7.20
2018-09-21T06:25:58.517Z,6.10
2018-09-21T06:26:58.372Z,4.80
2018-09-21T06:27:58.384Z,6.50
2018-09-21T06:28:58.474Z,7.50
2018-09-21T06:29:58.334Z,4.80
2018-09-21T06:30:58.327Z,5.60
2018-09-21T06:31:58.388Z,6.60
2018-09-21T06:32:58.705Z,7.40
2018-09-21T06:33:58.291Z,6.90
2018-09-21T06:34:58.550Z,6.60
2018-09-21T06:35:58.282Z,7.00
2018-09-21T06:36:58.284Z,4.90
2018-09-21T06:37:58.304Z,9.40
2018-09-21T06:38:58.874Z,6.70
2018-09-21T06:39:58.532Z,5.20
2018-09-21T06:40:58.532Z,8.20
2018-09-21T06:41:58.218Z,7.40
2018-09-21T06:42:58.213Z,7.50
2018-09-21T06:43:58.458Z,5.80
2018-09-21T06:44:58.192Z,6.20
2018-09-21T06:45:58.195Z,6.80
2018-09-21T06:46:58.153Z,6.90
2018-09-21T06:47:58.160Z,5.40
2018-09-21T06:48:58.156Z,6.90
2018-09-21T06:49:58.188Z,6.20
2018-09-21T06:50:58.645Z,7.00
2018-09-21T06:51:58.104Z,6.00
2018-09-21T06:52:58.103Z,7.00
2018-09-21T06:53:58.082Z,5.60
2018-09-21T06:54:58.080Z,9.00
2018-09-21T06:55:59.508Z,8.20
2018-09-21T06:56:58.089Z,6.40
2018-09-21T06:57:58.042Z,7.00
2018-09-21T06:58:59.225Z,5.60
2018-09-21T06:59:58.027Z,5.90
2018-09-21T07:00:59.007Z,6.80
2018-09-21T07:01:58.284Z,7.60
2018-09-21T07:02:58.255Z,6.00
2018-09-21T07:03:57.992Z,6.70
2018-09-21T07:04:58.219Z,4.80
2018-09-21T07:05:58.106Z,7.00
2018-09-21T07:06:58.021Z,5.40
2018-09-21T07:07:58.208Z,4.80
2018-09-21T07:08:57.934Z,6.10
2018-09-21T07:09:58.237Z,5.40
2018-09-21T07:10:57.957Z,5.40
2018-09-21T07:11:57.941Z,6.40
2018-09-21T07:12:57.878Z,5.00
2018-09-21T07:13:56.871Z,7.70
2018-09-21T07:14:57.085Z,8.20
2018-09-21T07:15:58.012Z,6.60
2018-09-21T07:17:01.166Z,7.60
2018-09-21T07:17:58.330Z,6.80
2018-09-21T07:18:58.521Z,5.90
2018-09-21T07:19:59.097Z,6.00
2018-09-21T07:20:57.837Z,6.50
2018-09-21T07:21:57.935Z,7.10
2018-09-21T07:22:58.033Z,5.90
2018-09-21T07:23:58.039Z,6.00
2018-09-21T07:24:57.886Z,9.40
2018-09-21T07:25:57.776Z,7.70
2018-09-21T07:26:57.779Z,8.00
2018-09-21T07:27:57.851Z,7.30
2018-09-21T07:28:57.988Z,5.30
2018-09-21T07:29:57.718Z,5.50
2018-09-21T07:30:57.730Z,6.10
2018-09-21T07:31:57.694Z,7.10
2018-09-21T07:32:57.720Z,4.80
2018-09-21T07:33:57.725Z,4.60
2018-09-21T07:34:57.791Z,4.70
2018-09-21T07:35:57.658Z,5.30
2018-09-21T07:36:57.907Z,5.60
2018-09-21T07:37:57.638Z,4.10
2018-09-21T07:38:57.989Z,4.60
2018-09-21T07:39:57.610Z,5.60
2018-09-21T07:40:57.590Z,4.90
2018-09-21T07:41:57.659Z,5.60
2018-09-21T07:42:57.672Z,4.90
2018-09-21T07:43:57.729Z,7.80
2018-09-21T07:44:57.880Z,4.00
2018-09-21T07:45:57.585Z,3.80
2018-09-21T07:46:57.528Z,5.10
2018-09-21T07:47:58.139Z,3.90
2018-09-21T07:48:57.556Z,4.10
2018-09-21T07:49:59.270Z,6.30
2018-09-21T07:50:57.805Z,4.90
2018-09-21T07:51:57.474Z,4.50
2018-09-21T07:53:01.898Z,4.80
2018-09-21T07:53:57.452Z,4.70
2018-09-21T07:54:57.457Z,4.10
2018-09-21T07:55:57.623Z,3.80
2018-09-21T07:56:57.552Z,4.30
2018-09-21T07:57:57.486Z,4.30
2018-09-21T07:58:57.411Z,4.50
2018-09-21T07:59:57.396Z,8.10
2018-09-21T08:00:57.415Z,5.70
2018-09-21T08:01:57.498Z,4.50
2018-09-21T08:02:57.354Z,5.30
2018-09-21T08:03:57.661Z,5.30
2018-09-21T08:04:57.386Z,6.10
2018-09-21T08:05:57.741Z,4.30
2018-09-21T08:06:57.584Z,4.20
2018-09-21T08:07:57.439Z,4.60
2018-09-21T08:08:57.290Z,7.50
2018-09-21T08:09:57.296Z,6.40
2018-09-21T08:10:57.331Z,5.10
2018-09-21T08:11:57.266Z,4.60
2018-09-21T08:12:57.461Z,4.10
2018-09-21T08:13:57.413Z,5.60
2018-09-21T08:14:57.238Z,7.80
2018-09-21T08:15:57.234Z,3.30
2018-09-21T08:16:57.202Z,4.00
2018-09-21T08:17:57.206Z,3.90
2018-09-21T08:18:57.295Z,5.20
2018-09-21T08:19:57.323Z,4.80
2018-09-21T08:20:57.546Z,4.00
2018-09-21T08:21:57.294Z,4.80
2018-09-21T08:22:57.532Z,3.10
2018-09-21T08:23:57.259Z,5.00
2018-09-21T08:24:57.339Z,3.40
2018-09-21T08:25:57.277Z,3.90
2018-09-21T08:26:57.093Z,6.10
2018-09-21T08:27:58.373Z,4.90
2018-09-21T08:28:56.259Z,4.20
2018-09-21T08:29:57.072Z,3.50
2018-09-21T08:30:57.203Z,4.30
2018-09-21T08:31:57.055Z,4.90
2018-09-21T08:32:57.036Z,3.30
2018-09-21T08:33:57.485Z,4.90
2018-09-21T08:34:56.095Z,5.00
2018-09-21T08:35:57.781Z,4.50
2018-09-21T08:36:57.500Z,4.00
2018-09-21T08:37:57.029Z,3.90
2018-09-21T08:38:56.967Z,4.20
2018-09-21T08:39:56.995Z,4.50
2018-09-21T08:40:56.965Z,3.90
2018-09-21T08:41:56.947Z,5.20
2018-09-21T08:42:56.963Z,4.20
2018-09-21T08:43:57.046Z,4.90
2018-09-21T08:44:56.925Z,3.60
2018-09-21T08:45:56.916Z,5.60
2018-09-21T08:46:56.999Z,4.20
2018-09-21T08:47:56.941Z,3.90
2018-09-21T08:48:57.220Z,3.20
2018-09-21T08:49:56.858Z,5.20
2018-09-21T08:51:02.443Z,4.00
2018-09-21T08:51:56.923Z,3.90
2018-09-21T08:52:56.887Z,4.90
2018-09-21T08:55:12.746Z,5.40
2018-09-21T08:56:12.478Z,3.80
2018-09-21T08:58:16.284Z,4.60
2018-09-21T08:59:56.663Z,3.90
2018-09-21T09:00:57.412Z,4.00
2018-09-21T09:01:57.488Z,3.60
2018-09-21T09:02:57.739Z,5.10
2018-09-21T09:03:57.381Z,4.40
2018-09-21T09:04:57.396Z,3.80
2018-09-21T09:05:57.499Z,5.80
2018-09-21T09:06:57.360Z,3.60
2018-09-21T09:07:57.349Z,4.00
2018-09-21T09:08:57.323Z,3.20
2018-09-21T09:09:57.320Z,3.80
2018-09-21T09:10:57.578Z,3.10
2018-09-21T09:11:56.313Z,4.40
2018-09-21T09:12:57.565Z,4.40
2018-09-21T09:13:57.757Z,4.30
2018-09-21T09:14:57.304Z,3.00
2018-09-21T09:15:57.252Z,3.00
2018-09-21T09:16:57.252Z,3.60
2018-09-21T09:17:57.576Z,4.00
2018-09-21T09:18:57.219Z,3.20
2018-09-21T09:19:57.473Z,4.40
2018-09-21T09:20:58.739Z,6.10
2018-09-21T09:21:57.209Z,3.30
2018-09-21T09:22:57.190Z,4.40
2018-09-21T09:23:56.265Z,7.00
2018-09-21T09:24:57.184Z,5.20
2018-09-21T09:25:57.209Z,3.60
2018-09-21T09:26:57.145Z,6.30
2018-09-21T09:27:57.146Z,4.40
2018-09-21T09:28:57.186Z,4.60
2018-09-21T09:29:57.158Z,4.50
2018-09-21T09:30:57.221Z,3.80
2018-09-21T09:31:57.519Z,4.50
2018-09-21T09:32:57.230Z,4.90
2018-09-21T09:33:57.070Z,5.20
2018-09-21T09:34:57.371Z,5.00
2018-09-21T09:35:57.049Z,4.40
2018-09-21T09:36:57.214Z,4.70
2018-09-21T09:37:57.046Z,6.30
2018-09-21T09:38:57.022Z,9.20
2018-09-21T09:39:57.011Z,6.60
2018-09-21T09:40:57.252Z,7.40
2018-09-21T09:41:56.997Z,7.80
2018-09-21T09:42:57.421Z,7.90
2018-09-21T09:43:56.969Z,3.20
2018-09-21T09:44:56.949Z,4.40
2018-09-21T09:45:56.950Z,4.20
2018-09-21T09:46:57.217Z,5.20
2018-09-21T09:47:56.946Z,3.00
2018-09-21T09:48:57.154Z,3.70
2018-09-21T09:49:56.905Z,5.90
2018-09-21T09:50:56.896Z,5.20
2018-09-21T09:51:56.873Z,5.80
2018-09-21T09:52:56.883Z,6.70
2018-09-21T09:53:57.118Z,4.10
2018-09-21T09:54:56.936Z,2.80
2018-09-21T09:55:57.100Z,5.50
2018-09-21T09:56:56.884Z,3.90
2018-09-21T09:57:57.092Z,4.70
2018-09-21T09:58:56.998Z,6.10
2018-09-21T09:59:56.785Z,4.80
2018-09-21T10:00:56.775Z,4.10
2018-09-21T10:01:56.823Z,3.90
2018-09-21T10:02:56.772Z,4.80
2018-09-21T10:03:57.054Z,3.10
2018-09-21T10:04:57.030Z,4.80
2018-09-21T10:05:56.869Z,3.00
2018-09-21T10:06:56.713Z,4.70
2018-09-21T10:07:56.718Z,5.40
2018-09-21T10:08:56.977Z,4.30
2018-09-21T10:09:56.690Z,3.80
2018-09-21T10:10:56.826Z,4.30
2018-09-21T10:11:56.719Z,6.00
2018-09-21T10:12:56.662Z,4.90
2018-09-21T10:13:56.644Z,3.70
2018-09-21T10:14:58.838Z,5.10
2018-09-21T10:15:57.620Z,3.40
2018-09-21T10:16:56.912Z,3.80
2018-09-21T10:17:56.634Z,4.60
2018-09-21T10:18:56.591Z,3.60
2018-09-21T10:19:56.844Z,4.10
2018-09-21T10:20:56.587Z,6.10
2018-09-21T10:21:56.554Z,4.60
2018-09-21T10:22:56.561Z,5.00
2018-09-21T10:23:56.558Z,4.20
2018-09-21T10:24:57.213Z,3.30
2018-09-21T10:25:56.517Z,5.20
2018-09-21T10:26:57.034Z,3.70
2018-09-21T10:27:56.998Z,3.90
2018-09-21T10:28:56.636Z,4.40
2018-09-21T10:29:56.575Z,4.00
2018-09-21T10:30:56.462Z,5.10
2018-09-21T10:31:56.739Z,4.50
2018-09-21T10:32:56.437Z,4.10
2018-09-21T10:33:56.520Z,4.20
2018-09-21T10:34:56.535Z,4.90
2018-09-21T10:35:56.484Z,3.00
2018-09-21T10:36:56.431Z,3.20
2018-09-21T10:37:56.459Z,4.60
2018-09-21T10:38:56.540Z,4.00
2018-09-21T10:39:56.427Z,4.80
2018-09-21T10:40:56.406Z,4.20
2018-09-21T10:41:56.414Z,3.60
2018-09-21T10:42:56.494Z,5.50
2018-09-21T10:43:56.340Z,5.90
2018-09-21T10:44:56.365Z,4.30
2018-09-21T10:45:56.345Z,6.80
2018-09-21T10:46:56.435Z,4.40
2018-09-21T10:47:56.364Z,3.80
2018-09-21T10:48:56.363Z,4.10
2018-09-21T10:49:57.660Z,4.30
2018-09-21T10:50:59.349Z,5.00
2018-09-21T10:51:57.237Z,6.80
2018-09-21T10:52:56.239Z,3.40
2018-09-21T10:53:56.352Z,5.30
2018-09-21T10:54:56.253Z,4.30
2018-09-21T10:55:56.334Z,4.70
2018-09-21T10:56:56.663Z,5.10
2018-09-21T10:57:56.240Z,6.10
2018-09-21T10:58:56.172Z,6.70
2018-09-21T10:59:56.645Z,5.40
2018-09-21T11:00:56.410Z,5.20
2018-09-21T11:01:56.127Z,3.50
2018-09-21T11:02:57.030Z,4.70
2018-09-21T11:03:56.433Z,4.60
2018-09-21T11:04:56.185Z,5.60
2018-09-21T11:05:56.090Z,5.70
2018-09-21T11:06:56.085Z,5.20
2018-09-21T11:07:56.066Z,6.20
2018-09-21T11:08:56.063Z,3.60
2018-09-21T11:09:56.172Z,6.20
2018-09-21T11:10:56.435Z,6.10
2018-09-21T11:11:56.047Z,6.50
2018-09-21T11:12:56.066Z,3.80
2018-09-21T11:13:56.013Z,5.60
2018-09-21T11:14:56.044Z,4.30
2018-09-21T11:15:55.981Z,9.20
2018-09-21T11:16:56.144Z,6.20
2018-09-21T11:17:55.955Z,5.40
2018-09-21T11:18:56.841Z,6.80
2018-09-21T11:19:55.945Z,8.80
2018-09-21T11:20:55.981Z,9.80
2018-09-21T11:21:55.935Z,8.20
2018-09-21T11:22:55.934Z,8.40
2018-09-21T11:23:58.446Z,11.60
2018-09-21T11:24:55.889Z,11.30
2018-09-21T11:25:56.363Z,10.80
2018-09-21T11:26:54.879Z,14.50
2018-09-21T11:27:55.855Z,10.10
2018-09-21T11:28:57.358Z,9.80
2018-09-21T11:29:56.124Z,10.30
2018-09-21T11:31:03.336Z,9.20
2018-09-21T11:31:55.809Z,12.70
2018-09-21T11:32:55.823Z,14.00
2018-09-21T11:33:55.874Z,12.10
2018-09-21T11:34:55.789Z,14.90
2018-09-21T11:35:55.877Z,15.20
2018-09-21T11:36:55.855Z,10.90
2018-09-21T11:37:56.287Z,10.60
2018-09-21T11:38:55.733Z,12.60
2018-09-21T11:39:55.731Z,19.30
2018-09-21T11:40:56.741Z,9.70
2018-09-21T11:41:55.894Z,12.70
2018-09-21T11:42:55.824Z,13.20
2018-09-21T11:43:56.834Z,14.40
2018-09-21T11:44:55.682Z,13.90
2018-09-21T11:45:56.047Z,11.30
2018-09-21T11:46:55.811Z,12.30
2018-09-21T11:47:55.782Z,11.50
2018-09-21T11:48:55.755Z,14.90
2018-09-21T11:49:55.970Z,16.00
2018-09-21T11:50:55.679Z,14.00
2018-09-21T11:51:55.858Z,10.80
2018-09-21T11:52:55.766Z,10.40
2018-09-21T11:53:56.295Z,12.60
2018-09-21T11:54:55.573Z,20.40
2018-09-21T11:55:55.674Z,12.90
2018-09-21T11:56:55.806Z,13.40
2018-09-21T11:57:55.529Z,15.60
2018-09-21T11:58:56.923Z,10.00
2018-09-21T11:59:55.521Z,12.00
2018-09-21T12:00:55.502Z,12.00
2018-09-21T12:01:55.826Z,11.90
2018-09-21T12:02:55.865Z,16.70
2018-09-21T12:03:55.583Z,9.10
2018-09-21T12:04:55.616Z,12.50
2018-09-21T12:05:55.543Z,12.30
2018-09-21T12:06:55.497Z,7.70
2018-09-21T12:07:55.474Z,10.70
2018-09-21T12:08:56.298Z,9.10
2018-09-21T12:09:55.554Z,9.80
2018-09-21T12:10:55.826Z,9.70
2018-09-21T12:11:55.386Z,14.80
2018-09-21T12:12:55.493Z,8.80
2018-09-21T12:13:55.388Z,10.20
2018-09-21T12:14:55.441Z,10.00
2018-09-21T12:15:55.368Z,9.00
2018-09-21T12:16:55.473Z,12.30
2018-09-21T12:17:55.580Z,10.10
2018-09-21T12:18:55.316Z,8.30
2018-09-21T12:19:57.857Z,7.10
2018-09-21T12:20:55.550Z,7.20
2018-09-21T12:21:55.431Z,11.90
2018-09-21T12:22:55.358Z,7.40
2018-09-21T12:23:57.412Z,9.70
2018-09-21T12:24:55.359Z,8.40
2018-09-21T12:25:57.134Z,6.20
2018-09-21T12:26:55.223Z,9.10
2018-09-21T12:27:55.331Z,5.90
2018-09-21T12:28:55.207Z,9.00
2018-09-21T12:29:57.837Z,8.50
2018-09-21T12:30:55.366Z,5.00
2018-09-21T12:31:55.175Z,3.90
2018-09-21T12:32:55.167Z,4.60
2018-09-21T12:33:55.272Z,4.20
2018-09-21T12:34:55.216Z,5.60
2018-09-21T12:35:55.285Z,5.80
2018-09-21T12:36:55.244Z,3.50
2018-09-21T12:37:55.142Z,5.10
2018-09-21T12:38:55.095Z,5.40
2018-09-21T12:39:55.117Z,7.50
2018-09-21T12:40:55.263Z,5.20
2018-09-21T12:41:55.223Z,8.10
2018-09-21T12:42:55.084Z,6.30
2018-09-21T12:43:55.041Z,6.00
2018-09-21T12:44:55.150Z,4.80
2018-09-21T12:45:55.674Z,7.70
2018-09-21T12:46:55.149Z,5.40
2018-09-21T12:47:55.169Z,9.70
2018-09-21T12:48:55.079Z,8.90
2018-09-21T12:49:55.057Z,5.00
2018-09-21T12:50:55.162Z,7.80
2018-09-21T12:51:55.351Z,5.70
2018-09-21T12:52:54.948Z,5.80
2018-09-21T12:53:55.063Z,7.60
2018-09-21T12:54:54.938Z,8.10
2018-09-21T12:55:54.992Z,6.40
2018-09-21T12:56:55.050Z,7.40
2018-09-21T12:57:55.048Z,8.00
2018-09-21T12:58:55.100Z,9.00
2018-09-21T12:59:54.976Z,7.30
2018-09-21T13:00:54.940Z,4.80
2018-09-21T13:01:55.079Z,5.60
2018-09-21T13:02:55.253Z,9.90
2018-09-21T13:03:55.234Z,6.70
2018-09-21T13:04:54.949Z,7.70
2018-09-21T13:05:54.926Z,6.00
2018-09-21T13:06:54.927Z,6.30
2018-09-21T13:07:54.872Z,4.20
2018-09-21T13:08:54.778Z,6.40
2018-09-21T13:09:54.780Z,4.90
2018-09-21T13:10:54.877Z,8.80
2018-09-21T13:11:54.886Z,7.70
2018-09-21T13:12:54.847Z,6.20
2018-09-21T13:13:54.855Z,7.40
2018-09-21T13:14:54.719Z,4.20
2018-09-21T13:15:54.829Z,6.00
2018-09-21T13:16:54.824Z,5.60
2018-09-21T13:17:55.066Z,4.10
2018-09-21T13:18:54.791Z,3.80